Time;durP1;ratioP1;P1;durP2;ratioP2;P2;SDS_P1;SDS_P2;PMS_P1;PMS_P2;Temp;Humidity;BMP_temperature;BMP_pressure;BME280_temperature;BME280_humidity;BME280_pressure;Samples;Min_cycle;Max_cycle;Signal;HPM_P1;HPM_P2
2022/08/11 00:01:46;;;;;;;9.88;5.57;;;;;;;16.38;100.00;93298.59;5096406;28;20048;-75
2022/08/11 00:04:15;;;;;;;9.80;5.28;;;;;;;16.41;100.00;93307.69;5090515;28;20040;-75
2022/08/11 00:06:45;;;;;;;8.35;5.40;;;;;;;16.44;100.00;93309.81;5090460;28;20044;-75
2022/08/11 00:09:15;;;;;;;8.60;4.88;;;;;;;16.44;100.00;93312.41;5090518;28;20154;-76
2022/08/11 00:11:46;;;;;;;9.25;6.07;;;;;;;16.39;100.00;93310.50;5090369;28;20044;-76
2022/08/11 00:14:16;;;;;;;8.35;5.30;;;;;;;16.38;100.00;93313.38;5090246;28;20399;-76
2022/08/11 00:16:53;;;;;;;7.35;5.03;;;;;;;16.35;100.00;93317.22;5089904;28;20044;-76
2022/08/11 00:19:24;;;;;;;11.48;6.43;;;;;;;16.34;100.00;93317.47;5089662;28;20062;-76
2022/08/11 00:21:53;;;;;;;6.95;4.80;;;;;;;16.30;100.00;93310.16;5090269;28;20048;-76
2022/08/11 00:24:22;;;;;;;9.55;5.88;;;;;;;16.24;100.00;93308.53;5090014;28;20051;-77
2022/08/11 00:26:50;;;;;;;8.77;4.95;;;;;;;16.23;100.00;93312.16;5090099;28;20052;-76
2022/08/11 00:29:17;;;;;;;6.25;4.97;;;;;;;16.16;100.00;93316.75;5089495;28;20081;-76
2022/08/11 00:31:49;;;;;;;9.90;5.75;;;;;;;16.16;100.00;93306.38;5090071;28;20048;-76
2022/08/11 00:34:18;;;;;;;6.40;5.30;;;;;;;16.13;100.00;93301.69;5089554;28;20104;-76
2022/08/11 00:36:51;;;;;;;7.32;5.30;;;;;;;16.14;100.00;93296.25;5089431;28;20113;-76
2022/08/11 00:39:20;;;;;;;10.40;6.10;;;;;;;16.14;100.00;93300.66;5089560;28;20116;-76
2022/08/11 00:42:02;;;;;;;7.78;5.13;;;;;;;15.96;100.00;93275.84;5089821;28;20040;-76
2022/08/11 00:44:37;;;;;;;9.70;5.95;;;;;;;16.07;100.00;93292.28;5102264;28;20050;-76
2022/08/11 00:47:21;;;;;;;7.60;5.57;;;;;;;16.13;100.00;93312.84;5089496;28;20541;-76
2022/08/11 00:50:07;;;;;;;8.77;5.10;;;;;;;16.02;100.00;93311.91;5089665;28;20040;-76
2022/08/11 00:53:08;;;;;;;10.75;5.65;;;;;;;15.95;100.00;93300.16;5089551;28;20044;-76
2022/08/11 00:56:39;;;;;;;9.38;5.35;;;;;;;15.84;100.00;93301.81;5089772;28;20151;-75
2022/08/11 00:59:44;;;;;;;7.80;5.82;;;;;;;15.82;100.00;93294.28;5089470;28;20093;-75
2022/08/11 01:02:18;;;;;;;6.25;4.50;;;;;;;15.81;100.00;93299.69;5079750;28;20059;-75
2022/08/11 01:05:20;;;;;;;7.03;5.43;;;;;;;15.79;100.00;93306.94;5089565;28;20047;-75
2022/08/11 01:08:35;;;;;;;10.07;5.38;;;;;;;15.78;100.00;93285.41;5094402;28;20075;-75
2022/08/11 01:11:34;;;;;;;9.77;6.43;;;;;;;15.69;100.00;93295.41;5105973;28;20046;-76
2022/08/11 01:14:35;;;;;;;8.05;5.60;;;;;;;15.67;100.00;93289.69;5108882;28;20503;-76
2022/08/11 01:17:34;;;;;;;8.27;5.40;;;;;;;15.60;100.00;93282.09;5108947;28;20073;-76
2022/08/11 01:20:10;;;;;;;8.98;6.28;;;;;;;15.50;100.00;93277.56;5108801;28;20415;-76
2022/08/11 01:23:18;;;;;;;9.65;6.00;;;;;;;15.48;100.00;93284.81;5108742;28;20127;-76
2022/08/11 01:26:23;;;;;;;8.93;6.97;;;;;;;15.38;100.00;93278.69;5108867;28;20054;-76
2022/08/11 01:29:39;;;;;;;11.27;6.32;;;;;;;15.28;100.00;93285.28;5109107;28;20101;-75
2022/08/11 01:32:54;;;;;;;9.05;6.30;;;;;;;15.16;100.00;93276.81;5108879;28;20516;-77
2022/08/11 01:35:34;;;;;;;9.90;6.78;;;;;;;15.12;100.00;93279.09;5108612;28;20088;-76
2022/08/11 01:38:34;;;;;;;8.60;5.90;;;;;;;15.20;100.00;93270.16;5108999;28;20130;-79
2022/08/11 01:45:06;;;;;;;8.25;6.18;;;;;;;15.38;100.00;93281.28;5109194;28;20054;-80
2022/08/11 01:47:53;;;;;;;7.15;5.53;;;;;;;15.10;100.00;93252.69;5109339;28;20089;-78
2022/08/11 01:51:02;;;;;;;8.73;6.32;;;;;;;15.36;100.00;93276.31;5109009;28;20043;-79
2022/08/11 01:53:38;;;;;;;10.60;6.32;;;;;;;15.38;100.00;93287.25;5109325;28;20073;-79
2022/08/11 01:56:22;;;;;;;10.15;6.20;;;;;;;15.35;100.00;93296.25;5109206;28;20450;-79
2022/08/11 01:59:00;;;;;;;7.97;5.50;;;;;;;15.35;100.00;93291.09;5108989;28;20051;-78
2022/08/11 02:01:41;;;;;;;8.13;5.82;;;;;;;15.35;100.00;93296.25;5108970;28;20124;-78
2022/08/11 02:04:24;;;;;;;9.98;6.15;;;;;;;15.38;100.00;93294.22;5109148;28;20126;-79
2022/08/11 02:07:01;;;;;;;8.13;6.28;;;;;;;15.34;100.00;93283.56;5108673;28;20047;-77
2022/08/11 02:09:53;;;;;;;8.32;5.63;;;;;;;15.25;100.00;93287.56;5108905;28;20047;-77
2022/08/11 02:12:36;;;;;;;8.55;5.80;;;;;;;15.21;100.00;93285.44;5108763;28;20039;-77
2022/08/11 02:15:12;;;;;;;6.57;5.40;;;;;;;15.19;100.00;93286.72;5108332;28;20434;-77
2022/08/11 02:17:50;;;;;;;8.70;6.00;;;;;;;15.15;100.00;93283.81;5108545;28;20096;-77
2022/08/11 02:26:05;;;;;;;8.25;5.97;;;;;;;15.02;100.00;93269.38;5109135;28;20138;-77
2022/08/11 02:28:42;;;;;;;7.28;5.45;;;;;;;15.09;100.00;93284.75;5112326;28;20089;-76
2022/08/11 02:34:14;;;;;;;8.90;6.32;;;;;;;15.01;100.00;93272.19;5112124;28;20131;-77
2022/08/11 02:36:52;;;;;;;8.15;6.65;;;;;;;14.63;100.00;93233.06;5111802;28;20054;-76
2022/08/11 02:39:23;;;;;;;8.38;5.72;;;;;;;15.00;100.00;93281.75;5112442;28;20047;-76
2022/08/11 02:44:51;;;;;;;8.38;6.60;;;;;;;14.89;100.00;93277.44;5111803;28;20055;-76
2022/08/11 02:47:32;;;;;;;11.70;6.97;;;;;;;14.88;100.00;93279.25;5111536;28;20047;-76
2022/08/11 02:50:04;;;;;;;8.88;6.32;;;;;;;14.88;100.00;93275.88;5111301;28;20439;-75
2022/08/11 02:52:41;;;;;;;9.25;6.97;;;;;;;14.89;100.00;93270.47;5111550;28;20039;-75
2022/08/11 02:55:20;;;;;;;11.35;6.85;;;;;;;14.90;100.00;93277.22;5111453;28;20135;-76
2022/08/11 02:57:53;;;;;;;11.20;7.03;;;;;;;14.89;100.00;93280.81;5111871;28;20071;-76
2022/08/11 03:00:21;;;;;;;7.40;6.20;;;;;;;14.85;100.00;93277.13;5111060;28;20476;-76
2022/08/11 03:03:01;;;;;;;9.02;6.20;;;;;;;14.91;100.00;93283.19;5111959;28;20051;-77
2022/08/11 03:05:42;;;;;;;8.32;6.03;;;;;;;14.80;100.00;93270.09;5111486;28;20551;-78
2022/08/11 03:08:23;;;;;;;7.95;6.25;;;;;;;14.86;100.00;93290.84;5111316;28;20119;-77
2022/08/11 03:16:55;;;;;;;8.18;5.43;;;;;;;14.84;100.00;93293.66;5053403;28;20079;-76
2022/08/11 03:19:29;;;;;;;8.82;6.15;;;;;;;14.79;100.00;93278.88;5111370;28;20552;-77
2022/08/11 03:22:05;;;;;;;9.88;5.97;;;;;;;14.79;100.00;93284.03;5111376;28;21248;-80
2022/08/11 03:24:43;;;;;;;7.32;5.80;;;;;;;14.76;100.00;93291.47;5111467;28;20115;-80
2022/08/11 03:27:29;;;;;;;11.55;6.35;;;;;;;14.74;100.00;93291.69;5111307;28;20384;-78
2022/08/11 03:30:06;;;;;;;9.75;7.22;;;;;;;14.73;100.00;93290.13;5111712;28;20052;-79
2022/08/11 03:32:41;;;;;;;8.85;7.05;;;;;;;14.65;100.00;93282.72;5111049;28;20131;-79
2022/08/11 03:38:02;;;;;;;11.70;6.78;;;;;;;14.50;100.00;93281.47;5111908;28;20734;-79
2022/08/11 03:43:41;;;;;;;11.48;7.40;;;;;;;14.52;100.00;93281.22;5111202;28;20059;-80
2022/08/11 03:46:12;;;;;;;8.80;7.30;;;;;;;14.58;100.00;93282.84;5111395;28;20039;-79
2022/08/11 03:48:48;;;;;;;10.82;7.68;;;;;;;14.64;100.00;93283.75;5102163;28;20044;-80
2022/08/11 03:51:23;;;;;;;11.32;7.43;;;;;;;14.65;100.00;93285.31;5090726;28;20624;-78
2022/08/11 03:54:20;;;;;;;8.23;6.90;;;;;;;14.58;100.00;93269.94;5108882;28;20135;-78
2022/08/11 03:57:29;;;;;;;10.75;7.30;;;;;;;14.55;100.00;93268.59;5110920;28;20043;-79
2022/08/11 04:00:19;;;;;;;11.45;7.03;;;;;;;14.61;100.00;93282.41;5111052;28;20127;-79
2022/08/11 04:03:19;;;;;;;12.07;7.70;;;;;;;14.60;100.00;93278.25;5110337;28;20491;-79
2022/08/11 04:06:28;;;;;;;11.93;7.57;;;;;;;14.62;100.00;93281.38;5077623;28;20101;-79
2022/08/11 04:09:34;;;;;;;9.45;6.72;;;;;;;14.72;100.00;93278.19;5109783;28;20043;-79
2022/08/11 04:12:30;;;;;;;10.32;7.55;;;;;;;14.72;100.00;93277.41;5110303;28;20047;-79
2022/08/11 04:18:56;;;;;;;11.57;6.82;;;;;;;14.73;100.00;93272.00;5110396;28;21177;-79
2022/08/11 04:21:58;;;;;;;12.27;7.40;;;;;;;14.81;100.00;93273.44;5086576;28;20047;-80
2022/08/11 04:24:50;;;;;;;13.63;8.20;;;;;;;14.77;100.00;93274.94;5110342;28;20043;-79
2022/08/11 04:27:54;;;;;;;13.05;8.13;;;;;;;14.81;100.00;93287.16;5110334;28;20108;-79
2022/08/11 04:30:28;;;;;;;11.77;8.90;;;;;;;14.83;100.00;93285.13;5110185;28;20047;-79
2022/08/11 04:33:35;;;;;;;15.07;9.27;;;;;;;14.89;100.00;93287.78;5110478;28;20039;-79
2022/08/11 04:37:30;;;;;;;13.98;8.13;;;;;;;14.92;100.00;93284.75;5088008;28;20393;-78
2022/08/11 04:39:18;;;;;;;15.60;9.48;;;;;;;14.95;100.00;93286.88;5110198;28;20499;-77
2022/08/11 04:45:39;;;;;;;13.88;8.75;;;;;;;15.15;100.00;93289.00;5109236;28;20518;-80
2022/08/11 05:01:42;;;;;;;12.65;9.15;;;;;;;15.47;100.00;93285.81;5089171;28;20055;-79
2022/08/11 05:08:07;;;;;;;19.83;14.18;;;;;;;15.34;100.00;93268.03;5109448;28;20054;-79
2022/08/11 05:10:54;;;;;;;16.67;11.25;;;;;;;15.40;100.00;93267.06;5109401;28;20051;-77
2022/08/11 05:36:08;;;;;;;21.23;12.77;;;;;;;15.72;100.00;93270.84;5088652;28;20066;-78
2022/08/11 05:58:02;;;;;;;29.15;14.85;;;;;;;16.93;100.00;93280.41;5092637;28;20055;-77
2022/08/11 06:00:30;;;;;;;30.40;13.20;;;;;;;17.16;100.00;93269.97;5092732;28;22125;-77
2022/08/11 06:03:00;;;;;;;27.58;13.85;;;;;;;17.33;100.00;93278.41;5092573;28;20059;-76
2022/08/11 06:05:33;;;;;;;20.00;11.98;;;;;;;17.44;100.00;93255.06;5092697;28;20044;-76
2022/08/11 06:08:00;;;;;;;21.75;11.70;;;;;;;17.64;100.00;93264.81;5092339;28;20099;-76
2022/08/11 06:10:33;;;;;;;20.23;11.30;;;;;;;17.94;100.00;93275.59;5106678;28;20059;-76
2022/08/11 06:13:01;;;;;;;18.85;10.65;;;;;;;18.18;100.00;93280.41;5092238;28;20131;-76
2022/08/11 06:15:28;;;;;;;24.73;11.85;;;;;;;18.42;100.00;93275.50;5089713;28;20047;-76
2022/08/11 06:17:57;;;;;;;25.77;12.18;;;;;;;18.77;100.00;93275.81;5090578;28;20048;-76
2022/08/11 06:20:25;;;;;;;28.15;13.00;;;;;;;18.92;100.00;93273.25;5092266;28;20430;-76
2022/08/11 06:22:58;;;;;;;25.20;11.15;;;;;;;19.23;100.00;93280.28;5092447;28;20040;-76
2022/08/11 06:25:34;;;;;;;31.42;12.38;;;;;;;19.50;100.00;93284.44;5092419;28;20127;-76
2022/08/11 06:28:03;;;;;;;25.95;10.15;;;;;;;19.74;100.00;93279.44;5106679;28;20074;-76
2022/08/11 06:30:38;;;;;;;18.65;10.15;;;;;;;20.05;100.00;93267.34;5092466;28;20404;-76
2022/08/11 06:33:10;;;;;;;23.13;10.67;;;;;;;20.41;100.00;93278.41;5092124;28;20098;-77
2022/08/11 06:35:48;;;;;;;20.88;9.63;;;;;;;20.62;100.00;93280.09;5092043;28;20430;-77
2022/08/11 06:38:28;;;;;;;22.02;9.40;;;;;;;20.80;100.00;93283.91;5091946;28;20467;-77
2022/08/11 06:43:51;;;;;;;23.52;12.75;;;;;;;21.55;100.00;93286.47;5098400;28;20057;-77
2022/08/11 06:46:26;;;;;;;17.50;9.93;;;;;;;21.78;100.00;93295.41;5098503;28;20526;-77
2022/08/11 06:48:55;;;;;;;14.07;7.82;;;;;;;21.66;100.00;93232.25;5092069;28;20454;-76
2022/08/11 06:51:21;;;;;;;15.85;7.22;;;;;;;22.42;100.00;93291.81;5091852;28;20226;-77
2022/08/11 06:53:51;;;;;;;12.35;7.05;;;;;;;22.62;100.00;93284.75;5091714;28;20040;-76
2022/08/11 07:02:03;;;;;;;9.25;5.97;;;;;;;22.24;100.00;93283.66;5091374;28;20522;-77
2022/08/11 07:04:35;;;;;;;13.05;6.30;;;;;;;22.38;100.00;93290.81;5091806;28;20089;-77
2022/08/11 07:16:23;;;;;;;12.30;6.63;;;;;;;23.56;100.00;93297.25;5099736;28;20088;-77
2022/08/11 07:30:04;;;;;;;5.00;3.78;;;;;;;23.22;93.96;93306.94;5090678;28;20106;-77
2022/08/11 07:32:35;;;;;;;5.43;4.05;;;;;;;22.20;92.48;93302.78;5090994;28;20044;-77
2022/08/11 07:35:12;;;;;;;5.05;4.03;;;;;;;22.34;94.67;93295.81;5090864;28;20059;-77
2022/08/11 07:37:42;;;;;;;5.07;3.80;;;;;;;22.21;95.55;93292.06;5090767;28;20044;-77
2022/08/11 07:40:10;;;;;;;6.15;4.05;;;;;;;21.87;98.51;93300.81;5090676;28;20089;-77
2022/08/11 07:42:40;;;;;;;5.47;4.05;;;;;;;21.61;97.72;93298.41;5090691;28;20048;-76
2022/08/11 07:53:27;;;;;;;4.60;3.83;;;;;;;21.57;97.52;93297.44;5090496;28;20113;-77
2022/08/11 07:55:56;;;;;;;6.75;4.55;;;;;;;21.44;98.40;93294.38;5090799;28;20048;-77
2022/08/11 08:17:57;;;;;;;4.80;3.97;;;;;;;21.83;96.11;93302.41;5089621;28;20093;-77
2022/08/11 08:20:26;;;;;;;4.28;3.58;;;;;;;21.84;93.70;93296.16;5090227;28;20131;-77
2022/08/11 08:22:56;;;;;;;6.13;4.05;;;;;;;21.93;92.71;93276.16;5110008;28;20047;-77
2022/08/11 08:25:25;;;;;;;4.07;3.33;;;;;;;22.04;93.19;93284.69;5104996;28;20059;-78
2022/08/11 08:27:53;;;;;;;4.30;3.45;;;;;;;22.35;91.16;93286.16;5087459;28;20043;-77
2022/08/11 08:33:06;;;;;;;4.57;3.38;;;;;;;22.38;85.93;93291.59;5080777;28;20051;-77
2022/08/11 08:35:34;;;;;;;5.32;3.60;;;;;;;22.31;85.66;93285.16;5094927;28;20627;-76
2022/08/11 08:38:02;;;;;;;3.92;3.50;;;;;;;21.93;84.33;93259.72;5109310;28;20089;-77
2022/08/11 08:40:29;;;;;;;4.57;3.47;;;;;;;22.38;85.04;93278.50;5109448;28;20450;-77
2022/08/11 08:43:02;;;;;;;5.82;3.40;;;;;;;22.83;84.44;93283.41;5088844;28;20059;-78
2022/08/11 08:45:29;;;;;;;5.25;3.25;;;;;;;22.47;80.15;93285.72;5108620;28;20529;-77
2022/08/11 08:48:01;;;;;;;4.15;2.80;;;;;;;22.40;82.60;93293.94;5109061;28;20044;-77
2022/08/11 08:53:23;;;;;;;4.50;3.13;;;;;;;22.22;80.08;93290.22;5109276;28;20526;-77
2022/08/11 08:55:51;;;;;;;4.55;2.85;;;;;;;22.55;80.66;93279.88;5103992;28;20163;-77
2022/08/11 08:58:21;;;;;;;4.00;2.78;;;;;;;22.82;82.49;93284.47;5097571;28;20130;-77
2022/08/11 09:00:52;;;;;;;4.07;2.67;;;;;;;22.92;79.96;93280.16;5094181;28;20055;-77
2022/08/11 09:03:20;;;;;;;4.72;2.72;;;;;;;23.23;77.13;93285.69;5094400;28;20385;-77
2022/08/11 09:05:49;;;;;;;3.88;2.88;;;;;;;23.48;75.22;93283.72;5108524;28;20047;-77
2022/08/11 09:08:18;;;;;;;5.57;2.83;;;;;;;23.66;74.49;93283.94;5090030;28;20439;-78
2022/08/11 09:10:46;;;;;;;4.30;2.90;;;;;;;23.91;76.37;93287.16;5096677;28;20048;-76
2022/08/11 09:13:15;;;;;;;4.40;3.10;;;;;;;24.38;74.00;93283.63;5089188;28;20040;-76
2022/08/11 09:15:42;;;;;;;4.25;3.03;;;;;;;24.17;76.48;93283.28;5089044;28;20048;-76
2022/08/11 09:18:10;;;;;;;4.30;3.30;;;;;;;24.17;74.92;93268.34;5089553;28;20450;-76
2022/08/11 09:20:38;;;;;;;4.68;3.28;;;;;;;24.55;75.72;93262.03;5089110;28;20051;-76
2022/08/11 09:28:42;;;;;;;4.53;3.47;;;;;;;24.67;75.42;93269.41;5088727;28;20081;-77
2022/08/11 09:31:11;;;;;;;5.38;3.10;;;;;;;24.76;71.12;93277.34;5091283;28;20105;-76
2022/08/11 09:33:39;;;;;;;5.05;2.78;;;;;;;24.75;72.24;93275.75;5092959;28;20572;-77
2022/08/11 09:41:38;;;;;;;3.90;2.60;;;;;;;25.37;68.25;93269.13;5092978;28;20104;-76
2022/08/11 09:46:52;;;;;;;3.60;2.88;;;;;;;25.70;66.04;93247.00;5095103;28;20054;-76
2022/08/11 09:49:21;;;;;;;6.47;3.75;;;;;;;26.02;70.23;93256.38;5093024;28;20044;-76
2022/08/11 09:51:49;;;;;;;4.47;3.08;;;;;;;26.47;68.75;93248.59;5092676;28;20583;-76
2022/08/11 09:54:19;;;;;;;4.80;3.10;;;;;;;25.78;67.10;93253.38;5092658;28;20135;-77
2022/08/11 09:59:31;;;;;;;3.75;2.95;;;;;;;24.73;71.99;93249.03;5102175;28;20059;-76
2022/08/11 10:02:01;;;;;;;5.63;3.85;;;;;;;25.20;72.95;93248.75;5092559;28;20046;-77
2022/08/11 10:04:35;;;;;;;6.35;3.90;;;;;;;24.91;71.80;93240.22;5092899;28;20057;-76
2022/08/11 10:07:05;;;;;;;4.28;3.20;;;;;;;25.17;70.85;93242.25;5093037;28;20052;-76
2022/08/11 10:09:40;;;;;;;7.13;3.58;;;;;;;25.34;72.55;93240.78;5092468;28;20040;-77
2022/08/11 10:12:11;;;;;;;5.38;3.28;;;;;;;24.87;69.79;93243.75;5092700;28;20101;-77
2022/08/11 10:17:31;;;;;;;5.50;3.20;;;;;;;25.18;68.20;93245.66;5092388;28;20062;-77
2022/08/11 10:20:01;;;;;;;5.15;3.22;;;;;;;24.54;71.84;93236.84;5092274;28;20048;-77
2022/08/11 10:28:23;;;;;;;4.85;3.45;;;;;;;24.85;72.20;93243.28;5092803;28;20067;-73
2022/08/11 10:36:23;;;;;;;5.95;4.10;;;;;;;24.13;72.06;93244.53;5105300;28;20063;-73
2022/08/11 10:38:51;;;;;;;5.40;3.63;;;;;;;23.79;74.47;93244.91;5093027;28;20526;-75
2022/08/11 10:44:06;;;;;;;4.50;2.97;;;;;;;24.91;70.60;93224.44;5104756;28;20055;-77
2022/08/11 10:49:21;;;;;;;5.30;3.13;;;;;;;24.84;67.40;93225.97;5065506;28;20465;-76
2022/08/11 11:00:06;;;;;;;6.85;3.03;;;;;;;24.37;72.26;93221.72;5096732;28;20518;-77
2022/08/11 11:02:35;;;;;;;5.80;3.63;;;;;;;24.36;71.95;93228.03;5091721;28;20127;-77
2022/08/11 11:05:09;;;;;;;4.75;2.72;;;;;;;23.76;69.61;93223.41;5091590;28;20454;-77
2022/08/11 11:07:39;;;;;;;3.70;2.75;;;;;;;23.59;71.59;93220.63;5091327;28;20101;-77
2022/08/11 11:10:07;;;;;;;5.57;3.00;;;;;;;23.82;72.49;93216.25;5091722;28;20048;-77
2022/08/11 11:18:16;;;;;;;4.82;2.45;;;;;;;24.13;69.48;93215.66;5091290;28;20540;-77
2022/08/11 11:20:47;;;;;;;3.63;2.30;;;;;;;24.17;66.19;93183.56;5091435;28;20048;-78
2022/08/11 11:23:18;;;;;;;4.35;2.10;;;;;;;24.73;66.30;93214.88;5091067;28;20044;-75
2022/08/11 11:26:10;;;;;;;4.72;2.45;;;;;;;25.34;62.02;93214.50;5091166;28;20051;-76
2022/08/11 11:29:06;;;;;;;3.55;1.92;;;;;;;25.98;60.83;93199.41;5090898;28;20117;-75
2022/08/11 11:31:46;;;;;;;6.20;2.20;;;;;;;25.33;59.98;93199.81;5090899;28;20055;-76
2022/08/11 11:34:26;;;;;;;2.83;1.90;;;;;;;25.10;60.77;93210.34;5090752;28;20048;-75
2022/08/11 11:36:55;;;;;;;3.35;1.75;;;;;;;25.51;60.61;93208.53;5090886;28;20040;-76
2022/08/11 11:39:26;;;;;;;2.35;1.50;;;;;;;25.68;58.00;93209.72;5090653;28;20113;-77
2022/08/11 11:41:55;;;;;;;3.70;1.92;;;;;;;25.79;58.33;93203.09;5091099;28;20048;-76
2022/08/11 11:44:25;;;;;;;2.65;1.63;;;;;;;25.63;54.62;93194.06;5102727;28;20473;-76
2022/08/11 11:46:53;;;;;;;3.08;1.40;;;;;;;25.47;54.99;93204.97;5092615;28;20048;-76
2022/08/11 11:49:23;;;;;;;2.40;1.50;;;;;;;25.20;54.50;93183.81;5090655;28;20044;-76
2022/08/11 11:51:52;;;;;;;3.10;1.63;;;;;;;25.77;54.90;93194.72;5090682;28;20043;-76
2022/08/11 11:54:23;;;;;;;4.07;1.50;;;;;;;26.17;54.12;93196.50;5089790;28;20040;-76
2022/08/11 11:56:52;;;;;;;2.55;1.65;;;;;;;26.04;51.56;93187.66;5090659;28;20468;-77
2022/08/11 12:02:07;;;;;;;2.45;1.48;;;;;;;26.50;48.35;93174.22;5088551;28;20050;-76
2022/08/11 12:04:36;;;;;;;2.25;1.25;;;;;;;25.97;46.19;93161.03;5089815;28;20391;-74
2022/08/11 12:09:50;;;;;;;3.03;1.75;;;;;;;26.14;47.01;93153.13;5090277;28;20428;-76
2022/08/11 12:15:02;;;;;;;3.25;2.00;;;;;;;25.62;46.97;93148.56;5090386;28;20051;-75
2022/08/11 12:17:30;;;;;;;4.65;1.50;;;;;;;25.54;46.58;93147.47;5090240;28;20063;-75
2022/08/11 12:19:58;;;;;;;2.42;1.38;;;;;;;26.16;47.75;93147.56;5090020;28;20098;-76
2022/08/11 12:27:55;;;;;;;3.03;1.55;;;;;;;27.07;46.89;93131.03;5089805;28;20055;-76
2022/08/11 12:30:22;;;;;;;5.38;1.80;;;;;;;27.66;46.24;93141.97;5090108;28;20048;-76
2022/08/11 12:32:51;;;;;;;4.65;1.70;;;;;;;27.80;45.45;93144.38;5090012;28;20058;-75
2022/08/11 12:35:17;;;;;;;4.15;2.25;;;;;;;27.13;46.50;93144.06;5088914;28;20062;-75
2022/08/11 12:37:50;;;;;;;3.90;2.00;;;;;;;26.78;47.49;93129.88;5089665;28;20101;-75
2022/08/11 12:45:58;;;;;;;5.47;1.95;;;;;;;24.99;48.66;93140.75;5099621;28;20478;-75
2022/08/11 12:54:11;;;;;;;3.20;1.90;;;;;;;25.95;49.81;93115.78;5089523;28;20059;-75
2022/08/11 13:05:01;;;;;;;3.17;1.60;;;;;;;25.34;49.20;93130.34;5088884;28;20514;-75
2022/08/11 13:07:28;;;;;;;2.50;1.67;;;;;;;25.68;49.28;93128.16;5089313;28;20089;-75
2022/08/11 13:09:57;;;;;;;3.75;1.98;;;;;;;25.70;48.40;93126.00;5089473;28;20128;-75
2022/08/11 13:15:13;;;;;;;9.30;4.18;;;;;;;26.09;47.24;93113.81;5089342;28;20128;-76
2022/08/11 13:17:42;;;;;;;4.40;2.00;;;;;;;26.14;47.72;93115.50;5089115;28;20492;-75
2022/08/11 13:20:13;;;;;;;3.00;1.90;;;;;;;25.79;47.53;93084.69;5088981;28;20055;-76
2022/08/11 13:22:44;;;;;;;3.60;2.25;;;;;;;25.62;47.75;93114.38;5093699;28;20442;-75
2022/08/11 13:25:13;;;;;;;2.90;1.95;;;;;;;25.93;47.87;93115.34;5101179;28;20082;-75
2022/08/11 13:27:40;;;;;;;3.72;1.70;;;;;;;26.07;46.85;93109.94;5089204;28;20127;-75
2022/08/11 13:32:53;;;;;;;6.20;2.63;;;;;;;25.17;59.84;93116.06;5088920;28;20047;-75
2022/08/11 13:35:22;;;;;;;3.35;2.70;;;;;;;25.12;61.71;93108.31;5088712;28;20098;-74
2022/08/11 13:37:50;;;;;;;3.67;3.20;;;;;;;24.94;62.36;93115.34;5089166;28;20044;-74
2022/08/11 13:40:20;;;;;;;5.35;2.90;;;;;;;24.49;64.07;93103.81;5091818;28;20054;-75
2022/08/11 13:42:48;;;;;;;6.85;3.45;;;;;;;24.26;65.24;93103.06;5089979;28;20431;-74
2022/08/11 13:45:15;;;;;;;5.03;2.60;;;;;;;24.24;65.89;93107.81;5093553;28;20044;-74
2022/08/11 13:47:43;;;;;;;3.60;2.50;;;;;;;23.92;67.34;93107.72;5088705;28;20104;-73
2022/08/11 13:50:12;;;;;;;5.28;3.38;;;;;;;24.11;66.69;93104.19;5088964;28;20036;-73
2022/08/11 13:52:41;;;;;;;6.05;2.50;;;;;;;23.83;67.41;93106.88;5088763;28;20054;-75
2022/08/11 13:55:20;;;;;;;5.40;3.05;;;;;;;23.97;67.59;93104.22;5088286;28;20046;-75
2022/08/11 13:57:49;;;;;;;4.68;3.28;;;;;;;23.94;68.42;93099.56;5107114;28;20096;-74
2022/08/11 14:00:18;;;;;;;3.78;3.15;;;;;;;23.82;67.33;93098.22;5088539;28;20059;-75
2022/08/11 14:02:49;;;;;;;5.03;2.90;;;;;;;24.11;67.00;93104.19;5089251;28;20535;-75
2022/08/11 14:05:19;;;;;;;4.13;2.72;;;;;;;24.09;67.49;93093.22;5089428;28;20060;-75
2022/08/11 14:07:51;;;;;;;4.90;3.03;;;;;;;24.13;66.29;93091.53;5088951;28;20097;-75
2022/08/11 14:10:22;;;;;;;4.50;3.00;;;;;;;24.12;66.59;93101.25;5089155;28;20068;-75
2022/08/11 14:15:45;;;;;;;4.30;2.83;;;;;;;24.38;63.51;93111.16;5089837;28;20051;-75
2022/08/11 14:18:19;;;;;;;5.53;2.88;;;;;;;24.23;64.59;93082.66;5105327;28;20059;-74
2022/08/11 14:23:39;;;;;;;4.70;2.92;;;;;;;24.51;62.79;93101.69;5092373;28;20427;-75
2022/08/11 14:28:53;;;;;;;6.28;2.58;;;;;;;25.02;62.20;93100.72;5092438;28;20126;-75
2022/08/11 14:31:22;;;;;;;3.90;2.85;;;;;;;24.71;61.65;93104.88;5092330;28;20054;-75
2022/08/11 14:33:50;;;;;;;3.78;2.75;;;;;;;24.63;61.96;93102.97;5092145;28;20062;-76
2022/08/11 14:36:18;;;;;;;4.18;2.92;;;;;;;24.62;61.95;93110.06;5091847;28;20052;-76
2022/08/11 14:38:47;;;;;;;3.92;2.83;;;;;;;24.81;62.53;93099.38;5092331;28;20036;-76
2022/08/11 14:49:29;;;;;;;7.80;3.23;;;;;;;24.62;61.90;93078.56;5089590;28;20058;-75
2022/08/11 14:51:57;;;;;;;4.78;3.10;;;;;;;24.73;61.25;93094.84;5090923;28;20058;-76
2022/08/11 14:57:13;;;;;;;4.25;3.20;;;;;;;24.55;60.92;93099.22;5090885;28;20129;-77
2022/08/11 14:59:42;;;;;;;3.72;2.78;;;;;;;24.19;63.38;93076.44;5089366;28;20450;-75
2022/08/11 15:04:55;;;;;;;4.70;3.70;;;;;;;23.96;63.64;93095.56;5090985;28;20090;-75
2022/08/11 15:07:28;;;;;;;6.68;3.00;;;;;;;23.99;62.76;93094.97;5091147;28;20075;-75
2022/08/11 15:09:58;;;;;;;4.65;2.97;;;;;;;23.94;62.96;93100.34;5090650;28;20055;-75
2022/08/11 15:12:25;;;;;;;7.07;2.92;;;;;;;23.90;61.59;93078.38;5092152;28;20051;-75
2022/08/11 15:17:38;;;;;;;4.78;3.53;;;;;;;24.16;61.88;93096.19;5092000;28;20051;-75
2022/08/11 15:25:40;;;;;;;4.18;2.80;;;;;;;24.74;60.02;93087.72;5090776;28;20070;-76
2022/08/11 15:39:21;;;;;;;5.70;3.40;;;;;;;24.67;59.75;93075.81;5090736;28;20577;-76
2022/08/11 15:47:38;;;;;;;5.05;2.65;;;;;;;24.67;59.25;93080.31;5090313;28;20135;-77
2022/08/11 15:50:06;;;;;;;4.07;3.10;;;;;;;24.66;59.69;93081.34;5090947;28;20044;-77
2022/08/11 15:52:41;;;;;;;5.05;2.70;;;;;;;24.60;59.98;93074.69;5090464;28;20048;-77
2022/08/11 15:55:09;;;;;;;9.45;3.65;;;;;;;24.84;60.53;93076.25;5090721;28;20039;-77
2022/08/11 16:05:56;;;;;;;4.68;3.33;;;;;;;24.41;61.79;93073.84;5090516;28;20514;-78
2022/08/11 16:08:25;;;;;;;5.53;2.83;;;;;;;24.45;62.81;93086.34;5090621;28;20048;-78
2022/08/11 16:10:55;;;;;;;4.43;2.58;;;;;;;24.01;64.66;93084.94;5090145;28;20135;-75
2022/08/11 16:16:14;;;;;;;5.93;3.35;;;;;;;23.62;67.21;93081.09;5090197;28;20549;-76
2022/08/11 16:18:46;;;;;;;3.92;2.95;;;;;;;23.44;67.69;93077.50;5103015;28;20048;-76
2022/08/11 16:21:16;;;;;;;4.10;2.90;;;;;;;23.28;68.33;93069.91;5089990;28;20044;-78
2022/08/11 16:23:46;;;;;;;4.07;3.05;;;;;;;23.00;69.03;93082.28;5090139;28;20097;-77
2022/08/11 16:26:17;;;;;;;4.18;3.38;;;;;;;23.04;68.21;93084.00;5089976;28;20043;-76
2022/08/11 16:28:46;;;;;;;5.70;3.47;;;;;;;23.07;68.30;93087.88;5089845;28;20408;-76
2022/08/11 16:31:15;;;;;;;5.47;3.10;;;;;;;23.12;68.39;93092.25;5089680;28;20549;-77
2022/08/11 16:33:43;;;;;;;6.90;3.30;;;;;;;22.96;67.65;93092.56;5090099;28;20091;-77
2022/08/11 16:38:58;;;;;;;4.40;3.22;;;;;;;22.81;68.38;93098.81;5089350;28;20590;-78
2022/08/11 16:47:03;;;;;;;6.05;3.67;;;;;;;22.49;69.50;93095.16;5090147;28;20138;-76
2022/08/11 16:49:33;;;;;;;6.47;3.70;;;;;;;22.60;69.36;93098.41;5089846;28;20048;-76
2022/08/11 16:52:02;;;;;;;14.18;7.10;;;;;;;22.49;70.31;93097.78;5089728;28;20044;-76
2022/08/11 16:54:30;;;;;;;15.50;8.82;;;;;;;22.36;71.05;93099.28;5090209;28;20121;-76
2022/08/11 16:59:12;;;;;;;6.55;4.20;;;;;;;22.26;71.95;93106.22;5089755;28;20058;-76
2022/08/11 16:59:48;;;;;;;27.55;13.45;;;;;;;22.29;71.61;93112.72;5089844;28;20044;-76
2022/08/11 17:13:07;;;;;;;8.70;5.55;;;;;;;22.23;71.08;93119.09;5089632;28;20709;-76
2022/08/11 17:13:46;;;;;;;6.20;4.47;;;;;;;21.92;71.89;93124.75;5087845;28;20342;-77
2022/08/11 17:16:20;;;;;;;3.60;2.90;;;;;;;21.87;71.46;93129.03;5088694;28;20098;-76
2022/08/11 17:18:54;;;;;;;3.90;2.90;;;;;;;21.88;71.84;93120.13;5101593;28;20420;-76
2022/08/11 17:21:25;;;;;;;5.03;3.17;;;;;;;21.80;72.18;93122.59;5089739;28;20108;-77
2022/08/11 17:23:54;;;;;;;4.28;3.17;;;;;;;21.72;71.42;93124.75;5089363;28;20093;-77